メインページ
METAR-TAF:

METAR-TAF

空港 :

Air_Force_Base

Plattsburgh, ニューヨーク, アメリカ合衆国

緯度: 44-39N, 経度: 073-28W, 海抜: 72m

現時点の気象観測

当レポートは1時間1分前の16:53(UTC)に作成
南東の風 12kt
気温 26°C
湿度 61%
気圧 1020 hPa
視程: 16.1km
晴天

METAR: KPBG 261653Z AUTO 14012KT 10SM CLR 26/18 A3011 RMK AO2 SLP194 T02610178

時間: 13:54 (17:54 UTC)

予報

当レポートは34分前の17:20(UTC)に作成
予報は26日の 18時(UTC)から 27日の 18時(UTC)まで有効
南東の風 12kt
視程: 10km
高度18000ftの雲はほとんどない
27日の 0000時(UTC)から
変向風 4kt
視程: 10km
高度12000ftの雲はほとんどない
27日の 1500時(UTC)から
南/南東の風 9kt
視程: 10km
高度15000ftの雲は散在している

TAF: KPBG 261720Z 2618/2718 14012KT P6SM FEW180 FM270000 VRB04KT P6SM FEW120 FM271500 16009KT P6SM SCT150

4,000以上の空港の気象観測と天気予報(METAR報とTAF報)

利用可能な観測所は地図上に黄色い丸と赤い丸で示す。

丸の上にカーソルを重ねると観測所名を参照できる。

次にクリックすると気象観測と天気予報を参照できる。

マップの切り替え:黒色「×」印の緑ボタンをクリックして拡大、「-」印の緑ボタンをクリックして縮小、緑色の三角印をクリックして隣りの地図に切り替え


METAR-TAF: